<?xml version="1.0" encoding="UTF-8" standalone="no" ?>
<gpx xmlns="http://www.topografix.com/GPX/1/1" xmlns:xsi="http://www.w3.org/2001/XMLSchema-instance" xsi:schemaLocation="http://www.topografix.com/GPX/1/1 http://www.topografix.com/GPX/1/1/gpx.xsd" version="1.1" creator="VisuGPX - https://www.visugpx.com">
  <metadata>
    <name>Tete de Rigaud (réalisé)</name>
    <desc><![CDATA[Depuis Rubi, (Gorges du Cians) en aller retour]]></desc>
  </metadata>
  <trk>
    <name><![CDATA[2017-06-11 10:42]]></name>
    <desc><![CDATA[<p>Heure de départ: 06/11/2017 10:42<br/>Heure d'arrivée: 06/11/2017 16:07<br/>Distance: 11,6 km (05:24)<br/>Temps déplacement: 04:09<br/>Vitesse moyenne: 2,14 km/h<br/>Vitesse moyenne mouv.: 2,79 km/h<br/>Vitesse Max.: 8,05 km/h<br/>Altitude minimale: 772 m<br/>Altitude maximale: 1913 m<br/>Vitesse de montée: 409,2 m/h<br/>Vitesse de descente: -478,4 m/h<br/>Gain d'altitude: 1173 m<br/>Perte d'altitude: -1164 m<br/>Temps de montée: 02:52<br/>Temps de descente: 02:25<br/></p><hr align="center" width="480" style="height: 2px; width: 517px"/>]]></desc>
    <trkseg>
      <trkpt lat="44.00162" lon="6.98505">
        <ele>777.26</ele>
        <time>2017-06-11T08:42:44Z</time>
      </trkpt>
      <trkpt lat="44.00183" lon="6.98489">
        <ele>779.56</ele>
        <time>2017-06-11T08:42:45Z</time>
      </trkpt>
      <trkpt lat="44.00184" lon="6.98462">
        <ele>772.39</ele>
        <time>2017-06-11T08:48:19Z</time>
      </trkpt>
      <trkpt lat="44.00177" lon="6.98436">
        <ele>774.34</ele>
        <time>2017-06-11T08:49:07Z</time>
      </trkpt>
      <trkpt lat="44.00178" lon="6.98411">
        <ele>777.73</ele>
        <time>2017-06-11T08:49:27Z</time>
      </trkpt>
      <trkpt lat="44.00175" lon="6.98386">
        <ele>789.56</ele>
        <time>2017-06-11T08:50:04Z</time>
      </trkpt>
      <trkpt lat="44.00176" lon="6.98357">
        <ele>791.55</ele>
        <time>2017-06-11T08:50:51Z</time>
      </trkpt>
      <trkpt lat="44.00194" lon="6.98372">
        <ele>789.09</ele>
        <time>2017-06-11T08:51:08Z</time>
      </trkpt>
      <trkpt lat="44.00196" lon="6.98346">
        <ele>800.67</ele>
        <time>2017-06-11T08:51:50Z</time>
      </trkpt>
      <trkpt lat="44.0021" lon="6.98324">
        <ele>817.35</ele>
        <time>2017-06-11T08:53:30Z</time>
      </trkpt>
      <trkpt lat="44.00208" lon="6.98299">
        <ele>831.54</ele>
        <time>2017-06-11T08:54:02Z</time>
      </trkpt>
      <trkpt lat="44.00225" lon="6.98312">
        <ele>830.76</ele>
        <time>2017-06-11T08:54:47Z</time>
      </trkpt>
      <trkpt lat="44.00235" lon="6.9829">
        <ele>842.18</ele>
        <time>2017-06-11T08:55:55Z</time>
      </trkpt>
      <trkpt lat="44.00248" lon="6.98272">
        <ele>851.56</ele>
        <time>2017-06-11T08:56:43Z</time>
      </trkpt>
      <trkpt lat="44.00248" lon="6.98247">
        <ele>858.55</ele>
        <time>2017-06-11T08:57:08Z</time>
      </trkpt>
      <trkpt lat="44.00244" lon="6.98222">
        <ele>864.12</ele>
        <time>2017-06-11T08:57:31Z</time>
      </trkpt>
      <trkpt lat="44.00244" lon="6.98196">
        <ele>864.54</ele>
        <time>2017-06-11T08:58:08Z</time>
      </trkpt>
      <trkpt lat="44.00248" lon="6.98172">
        <ele>867.58</ele>
        <time>2017-06-11T08:58:44Z</time>
      </trkpt>
      <trkpt lat="44.00246" lon="6.98145">
        <ele>867.14</ele>
        <time>2017-06-11T08:59:09Z</time>
      </trkpt>
      <trkpt lat="44.00264" lon="6.98141">
        <ele>874.55</ele>
        <time>2017-06-11T09:00:37Z</time>
      </trkpt>
      <trkpt lat="44.00279" lon="6.98157">
        <ele>881.55</ele>
        <time>2017-06-11T09:01:33Z</time>
      </trkpt>
      <trkpt lat="44.00298" lon="6.98162">
        <ele>889.63</ele>
        <time>2017-06-11T09:01:52Z</time>
      </trkpt>
      <trkpt lat="44.0031" lon="6.98183">
        <ele>887.86</ele>
        <time>2017-06-11T09:02:23Z</time>
      </trkpt>
      <trkpt lat="44.0033" lon="6.98183">
        <ele>889.74</ele>
        <time>2017-06-11T09:02:35Z</time>
      </trkpt>
      <trkpt lat="44.00346" lon="6.98196">
        <ele>894.4</ele>
        <time>2017-06-11T09:03:06Z</time>
      </trkpt>
      <trkpt lat="44.00353" lon="6.9822">
        <ele>906.48</ele>
        <time>2017-06-11T09:03:51Z</time>
      </trkpt>
      <trkpt lat="44.00366" lon="6.98239">
        <ele>913.26</ele>
        <time>2017-06-11T09:04:28Z</time>
      </trkpt>
      <trkpt lat="44.00377" lon="6.9826">
        <ele>916.27</ele>
        <time>2017-06-11T09:04:50Z</time>
      </trkpt>
      <trkpt lat="44.00388" lon="6.98281">
        <ele>917.57</ele>
        <time>2017-06-11T09:05:09Z</time>
      </trkpt>
      <trkpt lat="44.00397" lon="6.98304">
        <ele>919.34</ele>
        <time>2017-06-11T09:05:39Z</time>
      </trkpt>
      <trkpt lat="44.00405" lon="6.98328">
        <ele>921.28</ele>
        <time>2017-06-11T09:06:04Z</time>
      </trkpt>
      <trkpt lat="44.00411" lon="6.98352">
        <ele>924.02</ele>
        <time>2017-06-11T09:06:24Z</time>
      </trkpt>
      <trkpt lat="44.00426" lon="6.98365">
        <ele>921.73</ele>
        <time>2017-06-11T09:06:42Z</time>
      </trkpt>
      <trkpt lat="44.00433" lon="6.9839">
        <ele>927.27</ele>
        <time>2017-06-11T09:07:03Z</time>
      </trkpt>
      <trkpt lat="44.0044" lon="6.98366">
        <ele>935.52</ele>
        <time>2017-06-11T09:08:00Z</time>
      </trkpt>
      <trkpt lat="44.00441" lon="6.9834">
        <ele>941.13</ele>
        <time>2017-06-11T09:08:22Z</time>
      </trkpt>
      <trkpt lat="44.00455" lon="6.98356">
        <ele>941.48</ele>
        <time>2017-06-11T09:08:57Z</time>
      </trkpt>
      <trkpt lat="44.0046" lon="6.9838">
        <ele>946.61</ele>
        <time>2017-06-11T09:09:17Z</time>
      </trkpt>
      <trkpt lat="44.00474" lon="6.98397">
        <ele>948.43</ele>
        <time>2017-06-11T09:09:37Z</time>
      </trkpt>
      <trkpt lat="44.0048" lon="6.98421">
        <ele>953.28</ele>
        <time>2017-06-11T09:09:58Z</time>
      </trkpt>
      <trkpt lat="44.00495" lon="6.98436">
        <ele>956.55</ele>
        <time>2017-06-11T09:10:23Z</time>
      </trkpt>
      <trkpt lat="44.00505" lon="6.98457">
        <ele>962.16</ele>
        <time>2017-06-11T09:10:44Z</time>
      </trkpt>
      <trkpt lat="44.00522" lon="6.98468">
        <ele>964.54</ele>
        <time>2017-06-11T09:11:03Z</time>
      </trkpt>
      <trkpt lat="44.0054" lon="6.98475">
        <ele>966.64</ele>
        <time>2017-06-11T09:11:27Z</time>
      </trkpt>
      <trkpt lat="44.00559" lon="6.98474">
        <ele>973.53</ele>
        <time>2017-06-11T09:11:57Z</time>
      </trkpt>
      <trkpt lat="44.00576" lon="6.98481">
        <ele>975.52</ele>
        <time>2017-06-11T09:12:18Z</time>
      </trkpt>
      <trkpt lat="44.00591" lon="6.98496">
        <ele>981.17</ele>
        <time>2017-06-11T09:12:43Z</time>
      </trkpt>
      <trkpt lat="44.00609" lon="6.98496">
        <ele>984.25</ele>
        <time>2017-06-11T09:12:59Z</time>
      </trkpt>
      <trkpt lat="44.00603" lon="6.98472">
        <ele>986.61</ele>
        <time>2017-06-11T09:13:45Z</time>
      </trkpt>
      <trkpt lat="44.00618" lon="6.98457">
        <ele>991.95</ele>
        <time>2017-06-11T09:14:22Z</time>
      </trkpt>
      <trkpt lat="44.00636" lon="6.9845">
        <ele>992.76</ele>
        <time>2017-06-11T09:14:46Z</time>
      </trkpt>
      <trkpt lat="44.00651" lon="6.98435">
        <ele>997.84</ele>
        <time>2017-06-11T09:15:12Z</time>
      </trkpt>
      <trkpt lat="44.00669" lon="6.98429">
        <ele>1002.16</ele>
        <time>2017-06-11T09:15:45Z</time>
      </trkpt>
      <trkpt lat="44.00677" lon="6.98406">
        <ele>1015.17</ele>
        <time>2017-06-11T09:19:46Z</time>
      </trkpt>
      <trkpt lat="44.0068" lon="6.98381">
        <ele>1015.29</ele>
        <time>2017-06-11T09:20:16Z</time>
      </trkpt>
      <trkpt lat="44.00675" lon="6.98357">
        <ele>1025.19</ele>
        <time>2017-06-11T09:20:59Z</time>
      </trkpt>
      <trkpt lat="44.00669" lon="6.98332">
        <ele>1028.52</ele>
        <time>2017-06-11T09:22:02Z</time>
      </trkpt>
      <trkpt lat="44.00666" lon="6.98307">
        <ele>1035.55</ele>
        <time>2017-06-11T09:22:45Z</time>
      </trkpt>
      <trkpt lat="44.00662" lon="6.98282">
        <ele>1040.56</ele>
        <time>2017-06-11T09:23:23Z</time>
      </trkpt>
      <trkpt lat="44.00653" lon="6.9826">
        <ele>1045.39</ele>
        <time>2017-06-11T09:23:48Z</time>
      </trkpt>
      <trkpt lat="44.0064" lon="6.98243">
        <ele>1054.24</ele>
        <time>2017-06-11T09:24:18Z</time>
      </trkpt>
      <trkpt lat="44.00629" lon="6.98223">
        <ele>1054.85</ele>
        <time>2017-06-11T09:24:47Z</time>
      </trkpt>
      <trkpt lat="44.00615" lon="6.98205">
        <ele>1057.73</ele>
        <time>2017-06-11T09:25:12Z</time>
      </trkpt>
      <trkpt lat="44.00609" lon="6.98181">
        <ele>1061.46</ele>
        <time>2017-06-11T09:25:40Z</time>
      </trkpt>
      <trkpt lat="44.00605" lon="6.98157">
        <ele>1064.58</ele>
        <time>2017-06-11T09:26:06Z</time>
      </trkpt>
      <trkpt lat="44.00605" lon="6.98131">
        <ele>1067.24</ele>
        <time>2017-06-11T09:26:34Z</time>
      </trkpt>
      <trkpt lat="44.0061" lon="6.98107">
        <ele>1073.22</ele>
        <time>2017-06-11T09:26:57Z</time>
      </trkpt>
      <trkpt lat="44.00616" lon="6.98081">
        <ele>1079.46</ele>
        <time>2017-06-11T09:27:28Z</time>
      </trkpt>
      <trkpt lat="44.00625" lon="6.98059">
        <ele>1084.75</ele>
        <time>2017-06-11T09:27:54Z</time>
      </trkpt>
      <trkpt lat="44.00629" lon="6.98034">
        <ele>1082.58</ele>
        <time>2017-06-11T09:28:17Z</time>
      </trkpt>
      <trkpt lat="44.00631" lon="6.98009">
        <ele>1081.46</ele>
        <time>2017-06-11T09:28:39Z</time>
      </trkpt>
      <trkpt lat="44.00633" lon="6.97983">
        <ele>1089.18</ele>
        <time>2017-06-11T09:29:02Z</time>
      </trkpt>
      <trkpt lat="44.00644" lon="6.97963">
        <ele>1094.54</ele>
        <time>2017-06-11T09:29:22Z</time>
      </trkpt>
      <trkpt lat="44.00647" lon="6.97938">
        <ele>1098.55</ele>
        <time>2017-06-11T09:29:43Z</time>
      </trkpt>
      <trkpt lat="44.00656" lon="6.97916">
        <ele>1102.22</ele>
        <time>2017-06-11T09:30:08Z</time>
      </trkpt>
      <trkpt lat="44.00668" lon="6.97895">
        <ele>1103.87</ele>
        <time>2017-06-11T09:30:28Z</time>
      </trkpt>
      <trkpt lat="44.00674" lon="6.9787">
        <ele>1100.87</ele>
        <time>2017-06-11T09:30:47Z</time>
      </trkpt>
      <trkpt lat="44.00684" lon="6.97849">
        <ele>1103.26</ele>
        <time>2017-06-11T09:31:09Z</time>
      </trkpt>
      <trkpt lat="44.00687" lon="6.97823">
        <ele>1101.57</ele>
        <time>2017-06-11T09:31:27Z</time>
      </trkpt>
      <trkpt lat="44.00693" lon="6.97799">
        <ele>1107.46</ele>
        <time>2017-06-11T09:31:47Z</time>
      </trkpt>
      <trkpt lat="44.00697" lon="6.97774">
        <ele>1110.6</ele>
        <time>2017-06-11T09:32:08Z</time>
      </trkpt>
      <trkpt lat="44.00698" lon="6.97748">
        <ele>1112.54</ele>
        <time>2017-06-11T09:32:32Z</time>
      </trkpt>
      <trkpt lat="44.00703" lon="6.97724">
        <ele>1120.78</ele>
        <time>2017-06-11T09:32:58Z</time>
      </trkpt>
      <trkpt lat="44.00709" lon="6.97699">
        <ele>1127.81</ele>
        <time>2017-06-11T09:33:21Z</time>
      </trkpt>
      <trkpt lat="44.00718" lon="6.97676">
        <ele>1128.82</ele>
        <time>2017-06-11T09:33:55Z</time>
      </trkpt>
      <trkpt lat="44.00723" lon="6.97651">
        <ele>1132.52</ele>
        <time>2017-06-11T09:34:33Z</time>
      </trkpt>
      <trkpt lat="44.00717" lon="6.97628">
        <ele>1144.24</ele>
        <time>2017-06-11T09:35:08Z</time>
      </trkpt>
      <trkpt lat="44.00709" lon="6.97604">
        <ele>1143.55</ele>
        <time>2017-06-11T09:35:27Z</time>
      </trkpt>
      <trkpt lat="44.00707" lon="6.97579">
        <ele>1144.57</ele>
        <time>2017-06-11T09:35:48Z</time>
      </trkpt>
      <trkpt lat="44.00707" lon="6.97554">
        <ele>1141.31</ele>
        <time>2017-06-11T09:36:06Z</time>
      </trkpt>
      <trkpt lat="44.0071" lon="6.97528">
        <ele>1143.64</ele>
        <time>2017-06-11T09:36:26Z</time>
      </trkpt>
      <trkpt lat="44.00712" lon="6.97502">
        <ele>1145.75</ele>
        <time>2017-06-11T09:36:46Z</time>
      </trkpt>
      <trkpt lat="44.0072" lon="6.97477">
        <ele>1148.54</ele>
        <time>2017-06-11T09:37:04Z</time>
      </trkpt>
      <trkpt lat="44.00725" lon="6.97453">
        <ele>1151.52</ele>
        <time>2017-06-11T09:37:20Z</time>
      </trkpt>
      <trkpt lat="44.00736" lon="6.97433">
        <ele>1156.45</ele>
        <time>2017-06-11T09:37:44Z</time>
      </trkpt>
      <trkpt lat="44.00747" lon="6.97412">
        <ele>1159.46</ele>
        <time>2017-06-11T09:38:10Z</time>
      </trkpt>
      <trkpt lat="44.0075" lon="6.97387">
        <ele>1159.23</ele>
        <time>2017-06-11T09:38:33Z</time>
      </trkpt>
      <trkpt lat="44.0076" lon="6.97366">
        <ele>1166.25</ele>
        <time>2017-06-11T09:39:07Z</time>
      </trkpt>
      <trkpt lat="44.00764" lon="6.9734">
        <ele>1172.04</ele>
        <time>2017-06-11T09:39:42Z</time>
      </trkpt>
      <trkpt lat="44.0077" lon="6.97316">
        <ele>1179.18</ele>
        <time>2017-06-11T09:40:08Z</time>
      </trkpt>
      <trkpt lat="44.00781" lon="6.97296">
        <ele>1183.53</ele>
        <time>2017-06-11T09:40:40Z</time>
      </trkpt>
      <trkpt lat="44.00798" lon="6.97287">
        <ele>1184.54</ele>
        <time>2017-06-11T09:41:07Z</time>
      </trkpt>
      <trkpt lat="44.00811" lon="6.97268">
        <ele>1188.56</ele>
        <time>2017-06-11T09:44:00Z</time>
      </trkpt>
      <trkpt lat="44.00821" lon="6.97246">
        <ele>1191.34</ele>
        <time>2017-06-11T09:44:27Z</time>
      </trkpt>
      <trkpt lat="44.00832" lon="6.97225">
        <ele>1192.55</ele>
        <time>2017-06-11T09:44:50Z</time>
      </trkpt>
      <trkpt lat="44.00849" lon="6.97218">
        <ele>1197.46</ele>
        <time>2017-06-11T09:45:14Z</time>
      </trkpt>
      <trkpt lat="44.00865" lon="6.97205">
        <ele>1199.57</ele>
        <time>2017-06-11T09:45:38Z</time>
      </trkpt>
      <trkpt lat="44.00877" lon="6.97186">
        <ele>1202.55</ele>
        <time>2017-06-11T09:46:14Z</time>
      </trkpt>
      <trkpt lat="44.00887" lon="6.97164">
        <ele>1210.46</ele>
        <time>2017-06-11T09:46:48Z</time>
      </trkpt>
      <trkpt lat="44.00899" lon="6.97145">
        <ele>1212.85</ele>
        <time>2017-06-11T09:47:18Z</time>
      </trkpt>
      <trkpt lat="44.00915" lon="6.97133">
        <ele>1218.52</ele>
        <time>2017-06-11T09:47:47Z</time>
      </trkpt>
      <trkpt lat="44.00932" lon="6.9712">
        <ele>1221.52</ele>
        <time>2017-06-11T09:48:13Z</time>
      </trkpt>
      <trkpt lat="44.00941" lon="6.97098">
        <ele>1224.46</ele>
        <time>2017-06-11T09:48:39Z</time>
      </trkpt>
      <trkpt lat="44.00945" lon="6.97074">
        <ele>1227.54</ele>
        <time>2017-06-11T09:49:04Z</time>
      </trkpt>
      <trkpt lat="44.0095" lon="6.9705">
        <ele>1229.63</ele>
        <time>2017-06-11T09:49:28Z</time>
      </trkpt>
      <trkpt lat="44.00965" lon="6.97034">
        <ele>1236.52</ele>
        <time>2017-06-11T09:50:00Z</time>
      </trkpt>
      <trkpt lat="44.00971" lon="6.97011">
        <ele>1239.63</ele>
        <time>2017-06-11T09:50:33Z</time>
      </trkpt>
      <trkpt lat="44.00985" lon="6.96994">
        <ele>1244.54</ele>
        <time>2017-06-11T09:51:07Z</time>
      </trkpt>
      <trkpt lat="44.00996" lon="6.96974">
        <ele>1247.46</ele>
        <time>2017-06-11T09:51:42Z</time>
      </trkpt>
      <trkpt lat="44.00998" lon="6.96948">
        <ele>1261.52</ele>
        <time>2017-06-11T09:52:17Z</time>
      </trkpt>
      <trkpt lat="44.01001" lon="6.96923">
        <ele>1265.25</ele>
        <time>2017-06-11T09:52:48Z</time>
      </trkpt>
      <trkpt lat="44.01015" lon="6.96906">
        <ele>1266.85</ele>
        <time>2017-06-11T09:53:12Z</time>
      </trkpt>
      <trkpt lat="44.01023" lon="6.96882">
        <ele>1270.48</ele>
        <time>2017-06-11T09:53:39Z</time>
      </trkpt>
      <trkpt lat="44.01031" lon="6.9686">
        <ele>1273.54</ele>
        <time>2017-06-11T09:53:59Z</time>
      </trkpt>
      <trkpt lat="44.01036" lon="6.96835">
        <ele>1277.46</ele>
        <time>2017-06-11T09:54:26Z</time>
      </trkpt>
      <trkpt lat="44.0105" lon="6.96817">
        <ele>1278.54</ele>
        <time>2017-06-11T09:54:57Z</time>
      </trkpt>
      <trkpt lat="44.0106" lon="6.96796">
        <ele>1281.25</ele>
        <time>2017-06-11T09:55:19Z</time>
      </trkpt>
      <trkpt lat="44.01072" lon="6.96775">
        <ele>1282.55</ele>
        <time>2017-06-11T09:55:40Z</time>
      </trkpt>
      <trkpt lat="44.0108" lon="6.96753">
        <ele>1283.52</ele>
        <time>2017-06-11T09:56:00Z</time>
      </trkpt>
      <trkpt lat="44.01085" lon="6.96728">
        <ele>1288.25</ele>
        <time>2017-06-11T09:56:27Z</time>
      </trkpt>
      <trkpt lat="44.01087" lon="6.96703">
        <ele>1295.46</ele>
        <time>2017-06-11T09:56:59Z</time>
      </trkpt>
      <trkpt lat="44.01083" lon="6.96677">
        <ele>1302.48</ele>
        <time>2017-06-11T09:57:33Z</time>
      </trkpt>
      <trkpt lat="44.01077" lon="6.96653">
        <ele>1305.22</ele>
        <time>2017-06-11T09:58:03Z</time>
      </trkpt>
      <trkpt lat="44.01079" lon="6.96628">
        <ele>1306.56</ele>
        <time>2017-06-11T09:58:30Z</time>
      </trkpt>
      <trkpt lat="44.01077" lon="6.96602">
        <ele>1312.25</ele>
        <time>2017-06-11T09:59:03Z</time>
      </trkpt>
      <trkpt lat="44.01087" lon="6.96581">
        <ele>1318.55</ele>
        <time>2017-06-11T09:59:43Z</time>
      </trkpt>
      <trkpt lat="44.01105" lon="6.96592">
        <ele>1320.25</ele>
        <time>2017-06-11T10:00:34Z</time>
      </trkpt>
      <trkpt lat="44.0112" lon="6.96605">
        <ele>1328.55</ele>
        <time>2017-06-11T10:01:09Z</time>
      </trkpt>
      <trkpt lat="44.01139" lon="6.96609">
        <ele>1328.64</ele>
        <time>2017-06-11T10:01:32Z</time>
      </trkpt>
      <trkpt lat="44.01157" lon="6.96607">
        <ele>1334.19</ele>
        <time>2017-06-11T10:02:02Z</time>
      </trkpt>
      <trkpt lat="44.01176" lon="6.96607">
        <ele>1339.16</ele>
        <time>2017-06-11T10:02:38Z</time>
      </trkpt>
      <trkpt lat="44.01194" lon="6.9661">
        <ele>1340.64</ele>
        <time>2017-06-11T10:03:11Z</time>
      </trkpt>
      <trkpt lat="44.01213" lon="6.96607">
        <ele>1348.54</ele>
        <time>2017-06-11T10:04:11Z</time>
      </trkpt>
      <trkpt lat="44.01231" lon="6.96607">
        <ele>1352.28</ele>
        <time>2017-06-11T10:04:55Z</time>
      </trkpt>
      <trkpt lat="44.01249" lon="6.9661">
        <ele>1358.22</ele>
        <time>2017-06-11T10:05:45Z</time>
      </trkpt>
      <trkpt lat="44.01267" lon="6.96615">
        <ele>1366.52</ele>
        <time>2017-06-11T10:06:24Z</time>
      </trkpt>
      <trkpt lat="44.01281" lon="6.96599">
        <ele>1376.25</ele>
        <time>2017-06-11T10:07:12Z</time>
      </trkpt>
      <trkpt lat="44.01296" lon="6.96584">
        <ele>1382.45</ele>
        <time>2017-06-11T10:07:53Z</time>
      </trkpt>
      <trkpt lat="44.01306" lon="6.96564">
        <ele>1385.51</ele>
        <time>2017-06-11T10:08:31Z</time>
      </trkpt>
      <trkpt lat="44.0132" lon="6.96547">
        <ele>1393.25</ele>
        <time>2017-06-11T10:09:11Z</time>
      </trkpt>
      <trkpt lat="44.01336" lon="6.96534">
        <ele>1400.52</ele>
        <time>2017-06-11T10:10:03Z</time>
      </trkpt>
      <trkpt lat="44.01354" lon="6.96527">
        <ele>1405.85</ele>
        <time>2017-06-11T10:10:45Z</time>
      </trkpt>
      <trkpt lat="44.0137" lon="6.96515">
        <ele>1415.01</ele>
        <time>2017-06-11T10:11:28Z</time>
      </trkpt>
      <trkpt lat="44.01381" lon="6.96496">
        <ele>1420.84</ele>
        <time>2017-06-11T10:12:11Z</time>
      </trkpt>
      <trkpt lat="44.01393" lon="6.96477">
        <ele>1420.01</ele>
        <time>2017-06-11T10:12:48Z</time>
      </trkpt>
      <trkpt lat="44.01407" lon="6.96461">
        <ele>1427.42</ele>
        <time>2017-06-11T10:13:25Z</time>
      </trkpt>
      <trkpt lat="44.01423" lon="6.96448">
        <ele>1434.86</ele>
        <time>2017-06-11T10:14:05Z</time>
      </trkpt>
      <trkpt lat="44.01438" lon="6.96433">
        <ele>1437.55</ele>
        <time>2017-06-11T10:14:44Z</time>
      </trkpt>
      <trkpt lat="44.01457" lon="6.9643">
        <ele>1445.51</ele>
        <time>2017-06-11T10:15:25Z</time>
      </trkpt>
      <trkpt lat="44.01468" lon="6.96409">
        <ele>1452.13</ele>
        <time>2017-06-11T10:16:05Z</time>
      </trkpt>
      <trkpt lat="44.0148" lon="6.96389">
        <ele>1457.76</ele>
        <time>2017-06-11T10:16:46Z</time>
      </trkpt>
      <trkpt lat="44.01498" lon="6.96384">
        <ele>1462.55</ele>
        <time>2017-06-11T10:17:38Z</time>
      </trkpt>
      <trkpt lat="44.01516" lon="6.96381">
        <ele>1470.31</ele>
        <time>2017-06-11T10:18:11Z</time>
      </trkpt>
      <trkpt lat="44.01534" lon="6.96376">
        <ele>1476.06</ele>
        <time>2017-06-11T10:18:58Z</time>
      </trkpt>
      <trkpt lat="44.01553" lon="6.96373">
        <ele>1480.46</ele>
        <time>2017-06-11T10:19:29Z</time>
      </trkpt>
      <trkpt lat="44.01568" lon="6.96359">
        <ele>1486.61</ele>
        <time>2017-06-11T10:20:04Z</time>
      </trkpt>
      <trkpt lat="44.01585" lon="6.9635">
        <ele>1486.76</ele>
        <time>2017-06-11T10:20:34Z</time>
      </trkpt>
      <trkpt lat="44.01604" lon="6.96351">
        <ele>1491.55</ele>
        <time>2017-06-11T10:20:58Z</time>
      </trkpt>
      <trkpt lat="44.01622" lon="6.96345">
        <ele>1493.61</ele>
        <time>2017-06-11T10:21:30Z</time>
      </trkpt>
      <trkpt lat="44.01639" lon="6.96337">
        <ele>1496.51</ele>
        <time>2017-06-11T10:22:01Z</time>
      </trkpt>
      <trkpt lat="44.01657" lon="6.96343">
        <ele>1512.24</ele>
        <time>2017-06-11T10:24:09Z</time>
      </trkpt>
      <trkpt lat="44.01675" lon="6.96341">
        <ele>1521.3</ele>
        <time>2017-06-11T10:25:17Z</time>
      </trkpt>
      <trkpt lat="44.01695" lon="6.96341">
        <ele>1527.23</ele>
        <time>2017-06-11T10:26:12Z</time>
      </trkpt>
      <trkpt lat="44.01713" lon="6.9635">
        <ele>1533.31</ele>
        <time>2017-06-11T10:26:44Z</time>
      </trkpt>
      <trkpt lat="44.01726" lon="6.96333">
        <ele>1540.44</ele>
        <time>2017-06-11T10:27:22Z</time>
      </trkpt>
      <trkpt lat="44.01738" lon="6.96314">
        <ele>1544.46</ele>
        <time>2017-06-11T10:27:50Z</time>
      </trkpt>
      <trkpt lat="44.01733" lon="6.96289">
        <ele>1554.77</ele>
        <time>2017-06-11T10:28:39Z</time>
      </trkpt>
      <trkpt lat="44.01733" lon="6.96263">
        <ele>1557.76</ele>
        <time>2017-06-11T10:29:14Z</time>
      </trkpt>
      <trkpt lat="44.01726" lon="6.96239">
        <ele>1557.47</ele>
        <time>2017-06-11T10:29:53Z</time>
      </trkpt>
      <trkpt lat="44.01723" lon="6.96215">
        <ele>1565.94</ele>
        <time>2017-06-11T10:30:40Z</time>
      </trkpt>
      <trkpt lat="44.01724" lon="6.96189">
        <ele>1570.16</ele>
        <time>2017-06-11T10:31:03Z</time>
      </trkpt>
      <trkpt lat="44.01733" lon="6.96166">
        <ele>1570.38</ele>
        <time>2017-06-11T10:32:54Z</time>
      </trkpt>
      <trkpt lat="44.01732" lon="6.96141">
        <ele>1569.56</ele>
        <time>2017-06-11T10:33:11Z</time>
      </trkpt>
      <trkpt lat="44.01731" lon="6.96115">
        <ele>1571.55</ele>
        <time>2017-06-11T10:33:28Z</time>
      </trkpt>
      <trkpt lat="44.01736" lon="6.9609">
        <ele>1573.48</ele>
        <time>2017-06-11T10:33:50Z</time>
      </trkpt>
      <trkpt lat="44.01735" lon="6.96065">
        <ele>1575.46</ele>
        <time>2017-06-11T10:34:07Z</time>
      </trkpt>
      <trkpt lat="44.01736" lon="6.96039">
        <ele>1576.52</ele>
        <time>2017-06-11T10:34:31Z</time>
      </trkpt>
      <trkpt lat="44.01745" lon="6.96017">
        <ele>1573.57</ele>
        <time>2017-06-11T10:34:53Z</time>
      </trkpt>
      <trkpt lat="44.01751" lon="6.95992">
        <ele>1573.64</ele>
        <time>2017-06-11T10:35:15Z</time>
      </trkpt>
      <trkpt lat="44.01755" lon="6.95967">
        <ele>1574.54</ele>
        <time>2017-06-11T10:35:33Z</time>
      </trkpt>
      <trkpt lat="44.01761" lon="6.95943">
        <ele>1563.66</ele>
        <time>2017-06-11T10:36:06Z</time>
      </trkpt>
      <trkpt lat="44.01763" lon="6.95918">
        <ele>1565.48</ele>
        <time>2017-06-11T10:36:43Z</time>
      </trkpt>
      <trkpt lat="44.01767" lon="6.95893">
        <ele>1562.82</ele>
        <time>2017-06-11T10:37:08Z</time>
      </trkpt>
      <trkpt lat="44.01767" lon="6.95867">
        <ele>1562.49</ele>
        <time>2017-06-11T10:37:33Z</time>
      </trkpt>
      <trkpt lat="44.01771" lon="6.95842">
        <ele>1559.64</ele>
        <time>2017-06-11T10:37:54Z</time>
      </trkpt>
      <trkpt lat="44.01779" lon="6.95819">
        <ele>1560.56</ele>
        <time>2017-06-11T10:38:14Z</time>
      </trkpt>
      <trkpt lat="44.01785" lon="6.95794">
        <ele>1556.31</ele>
        <time>2017-06-11T10:39:00Z</time>
      </trkpt>
      <trkpt lat="44.01794" lon="6.95772">
        <ele>1556.27</ele>
        <time>2017-06-11T10:39:23Z</time>
      </trkpt>
      <trkpt lat="44.01807" lon="6.95755">
        <ele>1560.64</ele>
        <time>2017-06-11T10:39:51Z</time>
      </trkpt>
      <trkpt lat="44.01823" lon="6.9574">
        <ele>1559.46</ele>
        <time>2017-06-11T10:40:23Z</time>
      </trkpt>
      <trkpt lat="44.01831" lon="6.95718">
        <ele>1564.33</ele>
        <time>2017-06-11T10:41:06Z</time>
      </trkpt>
      <trkpt lat="44.01846" lon="6.95702">
        <ele>1581.46</ele>
        <time>2017-06-11T10:42:31Z</time>
      </trkpt>
      <trkpt lat="44.01861" lon="6.95688">
        <ele>1591.23</ele>
        <time>2017-06-11T10:43:14Z</time>
      </trkpt>
      <trkpt lat="44.01879" lon="6.95685">
        <ele>1597.45</ele>
        <time>2017-06-11T10:44:15Z</time>
      </trkpt>
      <trkpt lat="44.01897" lon="6.95681">
        <ele>1602.55</ele>
        <time>2017-06-11T10:44:47Z</time>
      </trkpt>
      <trkpt lat="44.01915" lon="6.95685">
        <ele>1604.25</ele>
        <time>2017-06-11T10:45:22Z</time>
      </trkpt>
      <trkpt lat="44.01933" lon="6.95688">
        <ele>1604.53</ele>
        <time>2017-06-11T10:45:49Z</time>
      </trkpt>
      <trkpt lat="44.01951" lon="6.9568">
        <ele>1609.48</ele>
        <time>2017-06-11T10:46:11Z</time>
      </trkpt>
      <trkpt lat="44.01969" lon="6.95678">
        <ele>1609.55</ele>
        <time>2017-06-11T10:46:34Z</time>
      </trkpt>
      <trkpt lat="44.01986" lon="6.95669">
        <ele>1612.46</ele>
        <time>2017-06-11T10:46:54Z</time>
      </trkpt>
      <trkpt lat="44.02005" lon="6.95664">
        <ele>1611.47</ele>
        <time>2017-06-11T10:47:17Z</time>
      </trkpt>
      <trkpt lat="44.02023" lon="6.95657">
        <ele>1611.66</ele>
        <time>2017-06-11T10:47:38Z</time>
      </trkpt>
      <trkpt lat="44.02041" lon="6.95646">
        <ele>1614.49</ele>
        <time>2017-06-11T10:47:57Z</time>
      </trkpt>
      <trkpt lat="44.02058" lon="6.95639">
        <ele>1615.17</ele>
        <time>2017-06-11T10:48:16Z</time>
      </trkpt>
      <trkpt lat="44.02073" lon="6.95623">
        <ele>1618.55</ele>
        <time>2017-06-11T10:48:37Z</time>
      </trkpt>
      <trkpt lat="44.02089" lon="6.95611">
        <ele>1617.55</ele>
        <time>2017-06-11T10:48:57Z</time>
      </trkpt>
      <trkpt lat="44.02106" lon="6.95598">
        <ele>1619.23</ele>
        <time>2017-06-11T10:49:24Z</time>
      </trkpt>
      <trkpt lat="44.02123" lon="6.95592">
        <ele>1617.56</ele>
        <time>2017-06-11T10:49:49Z</time>
      </trkpt>
      <trkpt lat="44.02138" lon="6.95578">
        <ele>1622.22</ele>
        <time>2017-06-11T10:50:15Z</time>
      </trkpt>
      <trkpt lat="44.02155" lon="6.95566">
        <ele>1625.2</ele>
        <time>2017-06-11T10:50:44Z</time>
      </trkpt>
      <trkpt lat="44.02174" lon="6.95562">
        <ele>1622.88</ele>
        <time>2017-06-11T10:51:34Z</time>
      </trkpt>
      <trkpt lat="44.02189" lon="6.95547">
        <ele>1625.56</ele>
        <time>2017-06-11T10:51:54Z</time>
      </trkpt>
      <trkpt lat="44.02206" lon="6.95537">
        <ele>1628.55</ele>
        <time>2017-06-11T10:52:20Z</time>
      </trkpt>
      <trkpt lat="44.0222" lon="6.9552">
        <ele>1626.73</ele>
        <time>2017-06-11T10:52:43Z</time>
      </trkpt>
      <trkpt lat="44.02228" lon="6.95498">
        <ele>1628.37</ele>
        <time>2017-06-11T10:53:02Z</time>
      </trkpt>
      <trkpt lat="44.0224" lon="6.95478">
        <ele>1630.62</ele>
        <time>2017-06-11T10:53:20Z</time>
      </trkpt>
      <trkpt lat="44.02245" lon="6.95454">
        <ele>1637.12</ele>
        <time>2017-06-11T10:53:35Z</time>
      </trkpt>
      <trkpt lat="44.02251" lon="6.9543">
        <ele>1636.47</ele>
        <time>2017-06-11T10:53:52Z</time>
      </trkpt>
      <trkpt lat="44.0226" lon="6.95407">
        <ele>1634.62</ele>
        <time>2017-06-11T10:54:13Z</time>
      </trkpt>
      <trkpt lat="44.02273" lon="6.95389">
        <ele>1639.55</ele>
        <time>2017-06-11T10:54:45Z</time>
      </trkpt>
      <trkpt lat="44.02283" lon="6.95368">
        <ele>1638.55</ele>
        <time>2017-06-11T10:55:10Z</time>
      </trkpt>
      <trkpt lat="44.02299" lon="6.95356">
        <ele>1640.25</ele>
        <time>2017-06-11T10:55:37Z</time>
      </trkpt>
      <trkpt lat="44.02315" lon="6.95344">
        <ele>1642.87</ele>
        <time>2017-06-11T10:56:04Z</time>
      </trkpt>
      <trkpt lat="44.02333" lon="6.95336">
        <ele>1638.55</ele>
        <time>2017-06-11T10:56:48Z</time>
      </trkpt>
      <trkpt lat="44.02349" lon="6.95325">
        <ele>1641.55</ele>
        <time>2017-06-11T10:57:16Z</time>
      </trkpt>
      <trkpt lat="44.02368" lon="6.95324">
        <ele>1652.15</ele>
        <time>2017-06-11T10:57:43Z</time>
      </trkpt>
      <trkpt lat="44.02385" lon="6.95318">
        <ele>1662.55</ele>
        <time>2017-06-11T10:58:24Z</time>
      </trkpt>
      <trkpt lat="44.02403" lon="6.95323">
        <ele>1658.51</ele>
        <time>2017-06-11T10:58:52Z</time>
      </trkpt>
      <trkpt lat="44.02422" lon="6.95322">
        <ele>1658.18</ele>
        <time>2017-06-11T10:59:24Z</time>
      </trkpt>
      <trkpt lat="44.0244" lon="6.95321">
        <ele>1663.76</ele>
        <time>2017-06-11T10:59:50Z</time>
      </trkpt>
      <trkpt lat="44.02459" lon="6.95324">
        <ele>1669.44</ele>
        <time>2017-06-11T11:00:16Z</time>
      </trkpt>
      <trkpt lat="44.02475" lon="6.95336">
        <ele>1674.22</ele>
        <time>2017-06-11T11:00:51Z</time>
      </trkpt>
      <trkpt lat="44.02493" lon="6.95329">
        <ele>1678.27</ele>
        <time>2017-06-11T11:01:51Z</time>
      </trkpt>
      <trkpt lat="44.02496" lon="6.95304">
        <ele>1688.21</ele>
        <time>2017-06-11T11:02:25Z</time>
      </trkpt>
      <trkpt lat="44.02508" lon="6.95286">
        <ele>1696.31</ele>
        <time>2017-06-11T11:03:19Z</time>
      </trkpt>
      <trkpt lat="44.02516" lon="6.95262">
        <ele>1700.93</ele>
        <time>2017-06-11T11:03:52Z</time>
      </trkpt>
      <trkpt lat="44.02524" lon="6.95239">
        <ele>1702.22</ele>
        <time>2017-06-11T11:04:21Z</time>
      </trkpt>
      <trkpt lat="44.02528" lon="6.95214">
        <ele>1703.55</ele>
        <time>2017-06-11T11:04:45Z</time>
      </trkpt>
      <trkpt lat="44.02546" lon="6.9522">
        <ele>1706.51</ele>
        <time>2017-06-11T11:05:25Z</time>
      </trkpt>
      <trkpt lat="44.02561" lon="6.95234">
        <ele>1712.55</ele>
        <time>2017-06-11T11:05:57Z</time>
      </trkpt>
      <trkpt lat="44.02579" lon="6.95229">
        <ele>1717.73</ele>
        <time>2017-06-11T11:06:38Z</time>
      </trkpt>
      <trkpt lat="44.02583" lon="6.95204">
        <ele>1721.56</ele>
        <time>2017-06-11T11:07:07Z</time>
      </trkpt>
      <trkpt lat="44.02585" lon="6.95177">
        <ele>1720.86</ele>
        <time>2017-06-11T11:07:27Z</time>
      </trkpt>
      <trkpt lat="44.02588" lon="6.95152">
        <ele>1722.57</ele>
        <time>2017-06-11T11:07:53Z</time>
      </trkpt>
      <trkpt lat="44.02595" lon="6.95128">
        <ele>1729.75</ele>
        <time>2017-06-11T11:08:37Z</time>
      </trkpt>
      <trkpt lat="44.02594" lon="6.95103">
        <ele>1732.76</ele>
        <time>2017-06-11T11:09:05Z</time>
      </trkpt>
      <trkpt lat="44.026" lon="6.95079">
        <ele>1731.54</ele>
        <time>2017-06-11T11:09:31Z</time>
      </trkpt>
      <trkpt lat="44.02611" lon="6.95058">
        <ele>1730.33</ele>
        <time>2017-06-11T11:09:51Z</time>
      </trkpt>
      <trkpt lat="44.0262" lon="6.95035">
        <ele>1733.2</ele>
        <time>2017-06-11T11:10:15Z</time>
      </trkpt>
      <trkpt lat="44.02625" lon="6.9501">
        <ele>1739.48</ele>
        <time>2017-06-11T11:10:41Z</time>
      </trkpt>
      <trkpt lat="44.02627" lon="6.94985">
        <ele>1738.51</ele>
        <time>2017-06-11T11:11:18Z</time>
      </trkpt>
      <trkpt lat="44.02618" lon="6.94963">
        <ele>1748.55</ele>
        <time>2017-06-11T11:11:51Z</time>
      </trkpt>
      <trkpt lat="44.02609" lon="6.94939">
        <ele>1743.64</ele>
        <time>2017-06-11T11:12:22Z</time>
      </trkpt>
      <trkpt lat="44.02594" lon="6.94926">
        <ele>1748.64</ele>
        <time>2017-06-11T11:13:07Z</time>
      </trkpt>
      <trkpt lat="44.02577" lon="6.94917">
        <ele>1751.67</ele>
        <time>2017-06-11T11:13:42Z</time>
      </trkpt>
      <trkpt lat="44.0259" lon="6.949">
        <ele>1754.44</ele>
        <time>2017-06-11T11:17:26Z</time>
      </trkpt>
      <trkpt lat="44.02603" lon="6.94882">
        <ele>1761.87</ele>
        <time>2017-06-11T11:18:22Z</time>
      </trkpt>
      <trkpt lat="44.02615" lon="6.94863">
        <ele>1769.54</ele>
        <time>2017-06-11T11:19:23Z</time>
      </trkpt>
      <trkpt lat="44.02633" lon="6.94861">
        <ele>1771.25</ele>
        <time>2017-06-11T11:20:18Z</time>
      </trkpt>
      <trkpt lat="44.02647" lon="6.94844">
        <ele>1781.27</ele>
        <time>2017-06-11T11:21:08Z</time>
      </trkpt>
      <trkpt lat="44.02654" lon="6.94821">
        <ele>1788.45</ele>
        <time>2017-06-11T11:21:49Z</time>
      </trkpt>
      <trkpt lat="44.02669" lon="6.94806">
        <ele>1790.43</ele>
        <time>2017-06-11T11:22:23Z</time>
      </trkpt>
      <trkpt lat="44.02685" lon="6.94792">
        <ele>1792.16</ele>
        <time>2017-06-11T11:23:02Z</time>
      </trkpt>
      <trkpt lat="44.027" lon="6.94778">
        <ele>1801.22</ele>
        <time>2017-06-11T11:23:34Z</time>
      </trkpt>
      <trkpt lat="44.02718" lon="6.94781">
        <ele>1806.57</ele>
        <time>2017-06-11T11:24:15Z</time>
      </trkpt>
      <trkpt lat="44.02737" lon="6.94779">
        <ele>1810.18</ele>
        <time>2017-06-11T11:24:45Z</time>
      </trkpt>
      <trkpt lat="44.02754" lon="6.94786">
        <ele>1818.63</ele>
        <time>2017-06-11T11:25:22Z</time>
      </trkpt>
      <trkpt lat="44.0276" lon="6.94809">
        <ele>1817.64</ele>
        <time>2017-06-11T11:26:19Z</time>
      </trkpt>
      <trkpt lat="44.02777" lon="6.94819">
        <ele>1826.25</ele>
        <time>2017-06-11T11:27:15Z</time>
      </trkpt>
      <trkpt lat="44.02789" lon="6.94839">
        <ele>1838.31</ele>
        <time>2017-06-11T11:28:24Z</time>
      </trkpt>
      <trkpt lat="44.028" lon="6.94858">
        <ele>1849.26</ele>
        <time>2017-06-11T11:29:52Z</time>
      </trkpt>
      <trkpt lat="44.02817" lon="6.9487">
        <ele>1853.92</ele>
        <time>2017-06-11T11:30:57Z</time>
      </trkpt>
      <trkpt lat="44.02813" lon="6.94895">
        <ele>1864.55</ele>
        <time>2017-06-11T11:31:43Z</time>
      </trkpt>
      <trkpt lat="44.02832" lon="6.949">
        <ele>1871.85</ele>
        <time>2017-06-11T11:33:04Z</time>
      </trkpt>
      <trkpt lat="44.02851" lon="6.94907">
        <ele>1872.86</ele>
        <time>2017-06-11T11:34:02Z</time>
      </trkpt>
      <trkpt lat="44.02868" lon="6.94916">
        <ele>1882.85</ele>
        <time>2017-06-11T11:35:01Z</time>
      </trkpt>
      <trkpt lat="44.02856" lon="6.94936">
        <ele>1894.8</ele>
        <time>2017-06-11T11:36:30Z</time>
      </trkpt>
      <trkpt lat="44.02847" lon="6.94958">
        <ele>1908.4</ele>
        <time>2017-06-11T11:37:27Z</time>
      </trkpt>
      <trkpt lat="44.02843" lon="6.94987">
        <ele>1913.26</ele>
        <time>2017-06-11T11:40:17Z</time>
      </trkpt>
      <trkpt lat="44.02841" lon="6.95014">
        <ele>1912.6</ele>
        <time>2017-06-11T11:40:28Z</time>
      </trkpt>
      <trkpt lat="44.02845" lon="6.95038">
        <ele>1894.6</ele>
        <time>2017-06-11T11:43:38Z</time>
      </trkpt>
      <trkpt lat="44.02846" lon="6.95064">
        <ele>1892.77</ele>
        <time>2017-06-11T11:44:32Z</time>
      </trkpt>
      <trkpt lat="44.02862" lon="6.95077">
        <ele>1882.87</ele>
        <time>2017-06-11T12:03:02Z</time>
      </trkpt>
      <trkpt lat="44.0288" lon="6.95081">
        <ele>1874.93</ele>
        <time>2017-06-11T12:03:55Z</time>
      </trkpt>
      <trkpt lat="44.02897" lon="6.9509">
        <ele>1863.55</ele>
        <time>2017-06-11T12:04:41Z</time>
      </trkpt>
      <trkpt lat="44.02906" lon="6.95112">
        <ele>1848.86</ele>
        <time>2017-06-11T12:06:00Z</time>
      </trkpt>
      <trkpt lat="44.02924" lon="6.95122">
        <ele>1842.91</ele>
        <time>2017-06-11T12:06:32Z</time>
      </trkpt>
      <trkpt lat="44.02921" lon="6.95148">
        <ele>1834.6</ele>
        <time>2017-06-11T12:07:30Z</time>
      </trkpt>
      <trkpt lat="44.02918" lon="6.95173">
        <ele>1831.01</ele>
        <time>2017-06-11T12:08:02Z</time>
      </trkpt>
      <trkpt lat="44.0292" lon="6.95198">
        <ele>1826.47</ele>
        <time>2017-06-11T12:08:31Z</time>
      </trkpt>
      <trkpt lat="44.02909" lon="6.95218">
        <ele>1803.94</ele>
        <time>2017-06-11T12:09:29Z</time>
      </trkpt>
      <trkpt lat="44.02891" lon="6.95219">
        <ele>1798.55</ele>
        <time>2017-06-11T12:09:53Z</time>
      </trkpt>
      <trkpt lat="44.02877" lon="6.95236">
        <ele>1791.55</ele>
        <time>2017-06-11T12:10:17Z</time>
      </trkpt>
      <trkpt lat="44.0286" lon="6.95247">
        <ele>1787.51</ele>
        <time>2017-06-11T12:11:08Z</time>
      </trkpt>
      <trkpt lat="44.02843" lon="6.95255">
        <ele>1786.18</ele>
        <time>2017-06-11T12:11:33Z</time>
      </trkpt>
      <trkpt lat="44.02824" lon="6.95255">
        <ele>1785.52</ele>
        <time>2017-06-11T12:12:03Z</time>
      </trkpt>
      <trkpt lat="44.02805" lon="6.95249">
        <ele>1783.55</ele>
        <time>2017-06-11T12:12:25Z</time>
      </trkpt>
      <trkpt lat="44.02788" lon="6.95242">
        <ele>1783.79</ele>
        <time>2017-06-11T12:12:49Z</time>
      </trkpt>
      <trkpt lat="44.0277" lon="6.95244">
        <ele>1774.88</ele>
        <time>2017-06-11T12:13:40Z</time>
      </trkpt>
      <trkpt lat="44.0275" lon="6.95246">
        <ele>1775.54</ele>
        <time>2017-06-11T12:14:04Z</time>
      </trkpt>
      <trkpt lat="44.02733" lon="6.95236">
        <ele>1772.73</ele>
        <time>2017-06-11T12:14:35Z</time>
      </trkpt>
      <trkpt lat="44.02726" lon="6.95211">
        <ele>1768.61</ele>
        <time>2017-06-11T12:15:23Z</time>
      </trkpt>
      <trkpt lat="44.02708" lon="6.9521">
        <ele>1765.77</ele>
        <time>2017-06-11T12:15:46Z</time>
      </trkpt>
      <trkpt lat="44.02691" lon="6.95204">
        <ele>1762.03</ele>
        <time>2017-06-11T12:16:23Z</time>
      </trkpt>
      <trkpt lat="44.02673" lon="6.95197">
        <ele>1758.58</ele>
        <time>2017-06-11T12:16:47Z</time>
      </trkpt>
      <trkpt lat="44.02656" lon="6.95206">
        <ele>1754.85</ele>
        <time>2017-06-11T12:17:23Z</time>
      </trkpt>
      <trkpt lat="44.02638" lon="6.95201">
        <ele>1747.8</ele>
        <time>2017-06-11T12:17:54Z</time>
      </trkpt>
      <trkpt lat="44.02622" lon="6.95213">
        <ele>1739.47</ele>
        <time>2017-06-11T12:18:21Z</time>
      </trkpt>
      <trkpt lat="44.02604" lon="6.9522">
        <ele>1735.26</ele>
        <time>2017-06-11T12:18:51Z</time>
      </trkpt>
      <trkpt lat="44.02587" lon="6.95227">
        <ele>1726.67</ele>
        <time>2017-06-11T12:19:32Z</time>
      </trkpt>
      <trkpt lat="44.02569" lon="6.95229">
        <ele>1717.77</ele>
        <time>2017-06-11T12:21:43Z</time>
      </trkpt>
      <trkpt lat="44.02551" lon="6.95235">
        <ele>1713.76</ele>
        <time>2017-06-11T12:22:13Z</time>
      </trkpt>
      <trkpt lat="44.02536" lon="6.95249">
        <ele>1706.55</ele>
        <time>2017-06-11T12:22:40Z</time>
      </trkpt>
      <trkpt lat="44.0252" lon="6.95263">
        <ele>1699.64</ele>
        <time>2017-06-11T12:23:08Z</time>
      </trkpt>
      <trkpt lat="44.02509" lon="6.95284">
        <ele>1693.64</ele>
        <time>2017-06-11T12:23:34Z</time>
      </trkpt>
      <trkpt lat="44.02503" lon="6.95309">
        <ele>1687.94</ele>
        <time>2017-06-11T12:23:56Z</time>
      </trkpt>
      <trkpt lat="44.02492" lon="6.9533">
        <ele>1678.28</ele>
        <time>2017-06-11T12:24:39Z</time>
      </trkpt>
      <trkpt lat="44.02475" lon="6.95339">
        <ele>1675.64</ele>
        <time>2017-06-11T12:25:05Z</time>
      </trkpt>
      <trkpt lat="44.02457" lon="6.95335">
        <ele>1674.64</ele>
        <time>2017-06-11T12:25:29Z</time>
      </trkpt>
      <trkpt lat="44.0244" lon="6.95323">
        <ele>1668.55</ele>
        <time>2017-06-11T12:25:52Z</time>
      </trkpt>
      <trkpt lat="44.02422" lon="6.95317">
        <ele>1668.55</ele>
        <time>2017-06-11T12:26:28Z</time>
      </trkpt>
      <trkpt lat="44.02404" lon="6.95319">
        <ele>1664.85</ele>
        <time>2017-06-11T12:26:50Z</time>
      </trkpt>
      <trkpt lat="44.02385" lon="6.95318">
        <ele>1660.85</ele>
        <time>2017-06-11T12:27:10Z</time>
      </trkpt>
      <trkpt lat="44.02366" lon="6.95322">
        <ele>1657.55</ele>
        <time>2017-06-11T12:27:30Z</time>
      </trkpt>
      <trkpt lat="44.02348" lon="6.95321">
        <ele>1651.63</ele>
        <time>2017-06-11T12:27:51Z</time>
      </trkpt>
      <trkpt lat="44.0233" lon="6.95326">
        <ele>1646.55</ele>
        <time>2017-06-11T12:28:13Z</time>
      </trkpt>
      <trkpt lat="44.02315" lon="6.95341">
        <ele>1645.06</ele>
        <time>2017-06-11T12:28:35Z</time>
      </trkpt>
      <trkpt lat="44.02298" lon="6.95348">
        <ele>1638.85</ele>
        <time>2017-06-11T12:28:59Z</time>
      </trkpt>
      <trkpt lat="44.02283" lon="6.95363">
        <ele>1635.55</ele>
        <time>2017-06-11T12:29:16Z</time>
      </trkpt>
      <trkpt lat="44.0227" lon="6.9538">
        <ele>1633.55</ele>
        <time>2017-06-11T12:29:32Z</time>
      </trkpt>
      <trkpt lat="44.0226" lon="6.95403">
        <ele>1633.16</ele>
        <time>2017-06-11T12:29:48Z</time>
      </trkpt>
      <trkpt lat="44.02251" lon="6.95425">
        <ele>1631.55</ele>
        <time>2017-06-11T12:30:03Z</time>
      </trkpt>
      <trkpt lat="44.02245" lon="6.95449">
        <ele>1629.9</ele>
        <time>2017-06-11T12:30:21Z</time>
      </trkpt>
      <trkpt lat="44.02237" lon="6.95472">
        <ele>1630.76</ele>
        <time>2017-06-11T12:30:35Z</time>
      </trkpt>
      <trkpt lat="44.02226" lon="6.95494">
        <ele>1629.82</ele>
        <time>2017-06-11T12:30:51Z</time>
      </trkpt>
      <trkpt lat="44.02218" lon="6.95518">
        <ele>1627.55</ele>
        <time>2017-06-11T12:31:09Z</time>
      </trkpt>
      <trkpt lat="44.02202" lon="6.95532">
        <ele>1626.55</ele>
        <time>2017-06-11T12:31:27Z</time>
      </trkpt>
      <trkpt lat="44.02189" lon="6.95549">
        <ele>1624.65</ele>
        <time>2017-06-11T12:31:50Z</time>
      </trkpt>
      <trkpt lat="44.02171" lon="6.95557">
        <ele>1622.55</ele>
        <time>2017-06-11T12:32:07Z</time>
      </trkpt>
      <trkpt lat="44.02153" lon="6.95562">
        <ele>1625.57</ele>
        <time>2017-06-11T12:32:30Z</time>
      </trkpt>
      <trkpt lat="44.02137" lon="6.95573">
        <ele>1621.73</ele>
        <time>2017-06-11T12:32:55Z</time>
      </trkpt>
      <trkpt lat="44.02122" lon="6.95588">
        <ele>1620.55</ele>
        <time>2017-06-11T12:33:13Z</time>
      </trkpt>
      <trkpt lat="44.02106" lon="6.95598">
        <ele>1621.64</ele>
        <time>2017-06-11T12:33:37Z</time>
      </trkpt>
      <trkpt lat="44.02089" lon="6.95611">
        <ele>1616.88</ele>
        <time>2017-06-11T12:33:58Z</time>
      </trkpt>
      <trkpt lat="44.02073" lon="6.95624">
        <ele>1616.48</ele>
        <time>2017-06-11T12:34:15Z</time>
      </trkpt>
      <trkpt lat="44.02058" lon="6.95637">
        <ele>1616.25</ele>
        <time>2017-06-11T12:34:31Z</time>
      </trkpt>
      <trkpt lat="44.0204" lon="6.95644">
        <ele>1616.55</ele>
        <time>2017-06-11T12:34:45Z</time>
      </trkpt>
      <trkpt lat="44.02023" lon="6.95653">
        <ele>1614.25</ele>
        <time>2017-06-11T12:35:04Z</time>
      </trkpt>
      <trkpt lat="44.02005" lon="6.95659">
        <ele>1611.64</ele>
        <time>2017-06-11T12:35:25Z</time>
      </trkpt>
      <trkpt lat="44.01987" lon="6.95665">
        <ele>1610.56</ele>
        <time>2017-06-11T12:35:45Z</time>
      </trkpt>
      <trkpt lat="44.01969" lon="6.95669">
        <ele>1607.55</ele>
        <time>2017-06-11T12:36:05Z</time>
      </trkpt>
      <trkpt lat="44.01951" lon="6.95674">
        <ele>1606.58</ele>
        <time>2017-06-11T12:36:23Z</time>
      </trkpt>
      <trkpt lat="44.01932" lon="6.95676">
        <ele>1605.57</ele>
        <time>2017-06-11T12:36:43Z</time>
      </trkpt>
      <trkpt lat="44.01914" lon="6.95678">
        <ele>1599.94</ele>
        <time>2017-06-11T12:37:13Z</time>
      </trkpt>
      <trkpt lat="44.01895" lon="6.95678">
        <ele>1594.55</ele>
        <time>2017-06-11T12:37:37Z</time>
      </trkpt>
      <trkpt lat="44.01879" lon="6.95689">
        <ele>1591.55</ele>
        <time>2017-06-11T12:38:05Z</time>
      </trkpt>
      <trkpt lat="44.01862" lon="6.957">
        <ele>1586.56</ele>
        <time>2017-06-11T12:38:39Z</time>
      </trkpt>
      <trkpt lat="44.01844" lon="6.95694">
        <ele>1579.85</ele>
        <time>2017-06-11T12:39:06Z</time>
      </trkpt>
      <trkpt lat="44.01836" lon="6.95716">
        <ele>1572.55</ele>
        <time>2017-06-11T12:39:46Z</time>
      </trkpt>
      <trkpt lat="44.01822" lon="6.95733">
        <ele>1562.64</ele>
        <time>2017-06-11T12:40:16Z</time>
      </trkpt>
      <trkpt lat="44.01808" lon="6.95749">
        <ele>1557.58</ele>
        <time>2017-06-11T12:40:36Z</time>
      </trkpt>
      <trkpt lat="44.01796" lon="6.95767">
        <ele>1553.86</ele>
        <time>2017-06-11T12:40:56Z</time>
      </trkpt>
      <trkpt lat="44.01794" lon="6.95793">
        <ele>1553.66</ele>
        <time>2017-06-11T12:41:11Z</time>
      </trkpt>
      <trkpt lat="44.01796" lon="6.95819">
        <ele>1548.33</ele>
        <time>2017-06-11T12:41:30Z</time>
      </trkpt>
      <trkpt lat="44.01798" lon="6.95846">
        <ele>1546.64</ele>
        <time>2017-06-11T12:41:47Z</time>
      </trkpt>
      <trkpt lat="44.01798" lon="6.95871">
        <ele>1542.28</ele>
        <time>2017-06-11T12:42:05Z</time>
      </trkpt>
      <trkpt lat="44.01801" lon="6.95896">
        <ele>1539.95</ele>
        <time>2017-06-11T12:42:20Z</time>
      </trkpt>
      <trkpt lat="44.01804" lon="6.95922">
        <ele>1534.55</ele>
        <time>2017-06-11T12:42:45Z</time>
      </trkpt>
      <trkpt lat="44.01811" lon="6.95948">
        <ele>1536.4</ele>
        <time>2017-06-11T12:42:55Z</time>
      </trkpt>
      <trkpt lat="44.01815" lon="6.95974">
        <ele>1543.42</ele>
        <time>2017-06-11T12:43:09Z</time>
      </trkpt>
      <trkpt lat="44.01813" lon="6.95999">
        <ele>1536.82</ele>
        <time>2017-06-11T12:43:26Z</time>
      </trkpt>
      <trkpt lat="44.01819" lon="6.96023">
        <ele>1541.25</ele>
        <time>2017-06-11T12:43:43Z</time>
      </trkpt>
      <trkpt lat="44.01809" lon="6.96044">
        <ele>1542.52</ele>
        <time>2017-06-11T12:44:06Z</time>
      </trkpt>
      <trkpt lat="44.018" lon="6.96067">
        <ele>1543.25</ele>
        <time>2017-06-11T12:44:24Z</time>
      </trkpt>
      <trkpt lat="44.01792" lon="6.9609">
        <ele>1539.56</ele>
        <time>2017-06-11T12:44:41Z</time>
      </trkpt>
      <trkpt lat="44.01782" lon="6.96112">
        <ele>1541.43</ele>
        <time>2017-06-11T12:45:01Z</time>
      </trkpt>
      <trkpt lat="44.01781" lon="6.96137">
        <ele>1538.34</ele>
        <time>2017-06-11T12:45:20Z</time>
      </trkpt>
      <trkpt lat="44.01773" lon="6.96161">
        <ele>1535.56</ele>
        <time>2017-06-11T12:45:36Z</time>
      </trkpt>
      <trkpt lat="44.01774" lon="6.96187">
        <ele>1538.52</ele>
        <time>2017-06-11T12:45:54Z</time>
      </trkpt>
      <trkpt lat="44.01775" lon="6.96213">
        <ele>1539.56</ele>
        <time>2017-06-11T12:46:10Z</time>
      </trkpt>
      <trkpt lat="44.01775" lon="6.9624">
        <ele>1539.56</ele>
        <time>2017-06-11T12:46:24Z</time>
      </trkpt>
      <trkpt lat="44.01773" lon="6.96265">
        <ele>1538.46</ele>
        <time>2017-06-11T12:46:46Z</time>
      </trkpt>
      <trkpt lat="44.01777" lon="6.9629">
        <ele>1533.52</ele>
        <time>2017-06-11T12:47:04Z</time>
      </trkpt>
      <trkpt lat="44.01776" lon="6.96316">
        <ele>1532.44</ele>
        <time>2017-06-11T12:47:22Z</time>
      </trkpt>
      <trkpt lat="44.01777" lon="6.96342">
        <ele>1531.53</ele>
        <time>2017-06-11T12:47:40Z</time>
      </trkpt>
      <trkpt lat="44.01774" lon="6.96368">
        <ele>1529.55</ele>
        <time>2017-06-11T12:47:59Z</time>
      </trkpt>
      <trkpt lat="44.01771" lon="6.96393">
        <ele>1532.25</ele>
        <time>2017-06-11T12:48:25Z</time>
      </trkpt>
      <trkpt lat="44.01765" lon="6.96417">
        <ele>1524.61</ele>
        <time>2017-06-11T12:49:03Z</time>
      </trkpt>
      <trkpt lat="44.01752" lon="6.96437">
        <ele>1521.31</ele>
        <time>2017-06-11T12:49:28Z</time>
      </trkpt>
      <trkpt lat="44.01733" lon="6.96432">
        <ele>1515.85</ele>
        <time>2017-06-11T12:49:47Z</time>
      </trkpt>
      <trkpt lat="44.01717" lon="6.96421">
        <ele>1511.76</ele>
        <time>2017-06-11T12:50:06Z</time>
      </trkpt>
      <trkpt lat="44.017" lon="6.9641">
        <ele>1509.64</ele>
        <time>2017-06-11T12:50:24Z</time>
      </trkpt>
      <trkpt lat="44.01682" lon="6.96407">
        <ele>1504.64</ele>
        <time>2017-06-11T12:50:52Z</time>
      </trkpt>
      <trkpt lat="44.01664" lon="6.96406">
        <ele>1500.25</ele>
        <time>2017-06-11T12:51:15Z</time>
      </trkpt>
      <trkpt lat="44.01646" lon="6.96397">
        <ele>1497.55</ele>
        <time>2017-06-11T12:51:36Z</time>
      </trkpt>
      <trkpt lat="44.01629" lon="6.96389">
        <ele>1494.55</ele>
        <time>2017-06-11T12:51:57Z</time>
      </trkpt>
      <trkpt lat="44.01611" lon="6.96391">
        <ele>1489.34</ele>
        <time>2017-06-11T12:52:19Z</time>
      </trkpt>
      <trkpt lat="44.01593" lon="6.9639">
        <ele>1486.64</ele>
        <time>2017-06-11T12:52:41Z</time>
      </trkpt>
      <trkpt lat="44.01574" lon="6.96393">
        <ele>1482.16</ele>
        <time>2017-06-11T12:53:06Z</time>
      </trkpt>
      <trkpt lat="44.0156" lon="6.9641">
        <ele>1479.31</ele>
        <time>2017-06-11T12:53:27Z</time>
      </trkpt>
      <trkpt lat="44.01541" lon="6.9641">
        <ele>1472.55</ele>
        <time>2017-06-11T12:53:50Z</time>
      </trkpt>
      <trkpt lat="44.01525" lon="6.96421">
        <ele>1465.58</ele>
        <time>2017-06-11T12:54:12Z</time>
      </trkpt>
      <trkpt lat="44.01509" lon="6.96435">
        <ele>1460.64</ele>
        <time>2017-06-11T12:54:36Z</time>
      </trkpt>
      <trkpt lat="44.01491" lon="6.96444">
        <ele>1458.57</ele>
        <time>2017-06-11T12:55:16Z</time>
      </trkpt>
      <trkpt lat="44.01474" lon="6.96452">
        <ele>1452.64</ele>
        <time>2017-06-11T12:55:41Z</time>
      </trkpt>
      <trkpt lat="44.01456" lon="6.96453">
        <ele>1448.86</ele>
        <time>2017-06-11T12:56:06Z</time>
      </trkpt>
      <trkpt lat="44.0144" lon="6.96467">
        <ele>1442.65</ele>
        <time>2017-06-11T12:56:31Z</time>
      </trkpt>
      <trkpt lat="44.01422" lon="6.96467">
        <ele>1441.58</ele>
        <time>2017-06-11T12:56:56Z</time>
      </trkpt>
      <trkpt lat="44.01403" lon="6.9647">
        <ele>1436.86</ele>
        <time>2017-06-11T12:57:19Z</time>
      </trkpt>
      <trkpt lat="44.01387" lon="6.9648">
        <ele>1430.56</ele>
        <time>2017-06-11T12:57:45Z</time>
      </trkpt>
      <trkpt lat="44.0137" lon="6.9649">
        <ele>1423.55</ele>
        <time>2017-06-11T12:58:12Z</time>
      </trkpt>
      <trkpt lat="44.01355" lon="6.96506">
        <ele>1417.55</ele>
        <time>2017-06-11T12:58:41Z</time>
      </trkpt>
      <trkpt lat="44.01338" lon="6.96514">
        <ele>1408.56</ele>
        <time>2017-06-11T12:59:09Z</time>
      </trkpt>
      <trkpt lat="44.0132" lon="6.9651">
        <ele>1398.58</ele>
        <time>2017-06-11T12:59:42Z</time>
      </trkpt>
      <trkpt lat="44.01302" lon="6.96517">
        <ele>1391.85</ele>
        <time>2017-06-11T13:00:17Z</time>
      </trkpt>
      <trkpt lat="44.01287" lon="6.96529">
        <ele>1386.86</ele>
        <time>2017-06-11T13:00:49Z</time>
      </trkpt>
      <trkpt lat="44.01271" lon="6.96544">
        <ele>1378.94</ele>
        <time>2017-06-11T13:01:14Z</time>
      </trkpt>
      <trkpt lat="44.01258" lon="6.96561">
        <ele>1373.48</ele>
        <time>2017-06-11T13:01:45Z</time>
      </trkpt>
      <trkpt lat="44.01242" lon="6.96572">
        <ele>1367.58</ele>
        <time>2017-06-11T13:02:22Z</time>
      </trkpt>
      <trkpt lat="44.0123" lon="6.96591">
        <ele>1359.57</ele>
        <time>2017-06-11T13:02:55Z</time>
      </trkpt>
      <trkpt lat="44.01214" lon="6.96603">
        <ele>1353.81</ele>
        <time>2017-06-11T13:03:20Z</time>
      </trkpt>
      <trkpt lat="44.01195" lon="6.96607">
        <ele>1348.58</ele>
        <time>2017-06-11T13:03:50Z</time>
      </trkpt>
      <trkpt lat="44.01177" lon="6.96608">
        <ele>1344.55</ele>
        <time>2017-06-11T13:04:13Z</time>
      </trkpt>
      <trkpt lat="44.01158" lon="6.96605">
        <ele>1338.56</ele>
        <time>2017-06-11T13:04:35Z</time>
      </trkpt>
      <trkpt lat="44.01139" lon="6.96605">
        <ele>1330.94</ele>
        <time>2017-06-11T13:08:18Z</time>
      </trkpt>
      <trkpt lat="44.01123" lon="6.96617">
        <ele>1328.55</ele>
        <time>2017-06-11T13:08:49Z</time>
      </trkpt>
      <trkpt lat="44.01113" lon="6.96638">
        <ele>1320.56</ele>
        <time>2017-06-11T13:09:26Z</time>
      </trkpt>
      <trkpt lat="44.01116" lon="6.96663">
        <ele>1315.58</ele>
        <time>2017-06-11T13:09:54Z</time>
      </trkpt>
      <trkpt lat="44.01105" lon="6.96683">
        <ele>1304.88</ele>
        <time>2017-06-11T13:10:38Z</time>
      </trkpt>
      <trkpt lat="44.01098" lon="6.96706">
        <ele>1294.52</ele>
        <time>2017-06-11T13:11:11Z</time>
      </trkpt>
      <trkpt lat="44.0109" lon="6.9673">
        <ele>1290.67</ele>
        <time>2017-06-11T13:11:37Z</time>
      </trkpt>
      <trkpt lat="44.01087" lon="6.96756">
        <ele>1287.77</ele>
        <time>2017-06-11T13:11:57Z</time>
      </trkpt>
      <trkpt lat="44.01073" lon="6.96773">
        <ele>1284.54</ele>
        <time>2017-06-11T13:12:14Z</time>
      </trkpt>
      <trkpt lat="44.01061" lon="6.96793">
        <ele>1284.47</ele>
        <time>2017-06-11T13:12:32Z</time>
      </trkpt>
      <trkpt lat="44.0105" lon="6.96813">
        <ele>1281.54</ele>
        <time>2017-06-11T13:12:55Z</time>
      </trkpt>
      <trkpt lat="44.0104" lon="6.96834">
        <ele>1277.55</ele>
        <time>2017-06-11T13:13:20Z</time>
      </trkpt>
      <trkpt lat="44.01031" lon="6.96856">
        <ele>1274.67</ele>
        <time>2017-06-11T13:13:40Z</time>
      </trkpt>
      <trkpt lat="44.01024" lon="6.96881">
        <ele>1275.83</ele>
        <time>2017-06-11T13:14:18Z</time>
      </trkpt>
      <trkpt lat="44.01015" lon="6.96904">
        <ele>1267.65</ele>
        <time>2017-06-11T13:14:41Z</time>
      </trkpt>
      <trkpt lat="44.01005" lon="6.96926">
        <ele>1264.26</ele>
        <time>2017-06-11T13:15:02Z</time>
      </trkpt>
      <trkpt lat="44.00998" lon="6.96951">
        <ele>1259.57</ele>
        <time>2017-06-11T13:15:26Z</time>
      </trkpt>
      <trkpt lat="44.00993" lon="6.96976">
        <ele>1252.34</ele>
        <time>2017-06-11T13:15:49Z</time>
      </trkpt>
      <trkpt lat="44.00982" lon="6.96996">
        <ele>1248.43</ele>
        <time>2017-06-11T13:16:10Z</time>
      </trkpt>
      <trkpt lat="44.00968" lon="6.97012">
        <ele>1240.95</ele>
        <time>2017-06-11T13:16:37Z</time>
      </trkpt>
      <trkpt lat="44.00959" lon="6.97036">
        <ele>1239.22</ele>
        <time>2017-06-11T13:16:58Z</time>
      </trkpt>
      <trkpt lat="44.00947" lon="6.97054">
        <ele>1235.17</ele>
        <time>2017-06-11T13:17:21Z</time>
      </trkpt>
      <trkpt lat="44.0094" lon="6.97078">
        <ele>1232.76</ele>
        <time>2017-06-11T13:17:43Z</time>
      </trkpt>
      <trkpt lat="44.00936" lon="6.97103">
        <ele>1226.58</ele>
        <time>2017-06-11T13:18:03Z</time>
      </trkpt>
      <trkpt lat="44.00927" lon="6.97126">
        <ele>1226.57</ele>
        <time>2017-06-11T13:18:21Z</time>
      </trkpt>
      <trkpt lat="44.00913" lon="6.97144">
        <ele>1222.64</ele>
        <time>2017-06-11T13:18:44Z</time>
      </trkpt>
      <trkpt lat="44.00897" lon="6.97156">
        <ele>1223.54</ele>
        <time>2017-06-11T13:19:07Z</time>
      </trkpt>
      <trkpt lat="44.00882" lon="6.97171">
        <ele>1214.86</ele>
        <time>2017-06-11T13:19:30Z</time>
      </trkpt>
      <trkpt lat="44.00871" lon="6.97191">
        <ele>1210.64</ele>
        <time>2017-06-11T13:19:55Z</time>
      </trkpt>
      <trkpt lat="44.00859" lon="6.97209">
        <ele>1207.55</ele>
        <time>2017-06-11T13:20:16Z</time>
      </trkpt>
      <trkpt lat="44.00844" lon="6.97227">
        <ele>1204.26</ele>
        <time>2017-06-11T13:20:34Z</time>
      </trkpt>
      <trkpt lat="44.00832" lon="6.97249">
        <ele>1198.37</ele>
        <time>2017-06-11T13:20:56Z</time>
      </trkpt>
      <trkpt lat="44.00815" lon="6.97258">
        <ele>1193.97</ele>
        <time>2017-06-11T13:21:21Z</time>
      </trkpt>
      <trkpt lat="44.008" lon="6.97271">
        <ele>1188.26</ele>
        <time>2017-06-11T13:21:45Z</time>
      </trkpt>
      <trkpt lat="44.00786" lon="6.97288">
        <ele>1183.85</ele>
        <time>2017-06-11T13:22:08Z</time>
      </trkpt>
      <trkpt lat="44.00776" lon="6.97309">
        <ele>1182.26</ele>
        <time>2017-06-11T13:22:29Z</time>
      </trkpt>
      <trkpt lat="44.00764" lon="6.97329">
        <ele>1178.64</ele>
        <time>2017-06-11T13:22:52Z</time>
      </trkpt>
      <trkpt lat="44.00763" lon="6.97355">
        <ele>1174.57</ele>
        <time>2017-06-11T13:23:11Z</time>
      </trkpt>
      <trkpt lat="44.00754" lon="6.97376">
        <ele>1171.48</ele>
        <time>2017-06-11T13:23:33Z</time>
      </trkpt>
      <trkpt lat="44.0075" lon="6.97401">
        <ele>1165.61</ele>
        <time>2017-06-11T13:23:54Z</time>
      </trkpt>
      <trkpt lat="44.00737" lon="6.97421">
        <ele>1157.88</ele>
        <time>2017-06-11T13:24:19Z</time>
      </trkpt>
      <trkpt lat="44.00726" lon="6.97442">
        <ele>1157.85</ele>
        <time>2017-06-11T13:24:35Z</time>
      </trkpt>
      <trkpt lat="44.00723" lon="6.97467">
        <ele>1155.85</ele>
        <time>2017-06-11T13:25:17Z</time>
      </trkpt>
      <trkpt lat="44.00715" lon="6.9749">
        <ele>1153.62</ele>
        <time>2017-06-11T13:25:37Z</time>
      </trkpt>
      <trkpt lat="44.00707" lon="6.97514">
        <ele>1150.61</ele>
        <time>2017-06-11T13:25:55Z</time>
      </trkpt>
      <trkpt lat="44.00708" lon="6.97539">
        <ele>1151.51</ele>
        <time>2017-06-11T13:26:09Z</time>
      </trkpt>
      <trkpt lat="44.00705" lon="6.97565">
        <ele>1145.94</ele>
        <time>2017-06-11T13:26:29Z</time>
      </trkpt>
      <trkpt lat="44.00707" lon="6.97593">
        <ele>1148.53</ele>
        <time>2017-06-11T13:26:45Z</time>
      </trkpt>
      <trkpt lat="44.00704" lon="6.97619">
        <ele>1144.55</ele>
        <time>2017-06-11T13:27:06Z</time>
      </trkpt>
      <trkpt lat="44.00709" lon="6.97643">
        <ele>1146.16</ele>
        <time>2017-06-11T13:27:24Z</time>
      </trkpt>
      <trkpt lat="44.00704" lon="6.97668">
        <ele>1143.57</ele>
        <time>2017-06-11T13:27:46Z</time>
      </trkpt>
      <trkpt lat="44.00703" lon="6.97693">
        <ele>1135.87</ele>
        <time>2017-06-11T13:28:11Z</time>
      </trkpt>
      <trkpt lat="44.00704" lon="6.97718">
        <ele>1130.56</ele>
        <time>2017-06-11T13:28:31Z</time>
      </trkpt>
      <trkpt lat="44.00696" lon="6.97742">
        <ele>1126.28</ele>
        <time>2017-06-11T13:28:54Z</time>
      </trkpt>
      <trkpt lat="44.007" lon="6.97767">
        <ele>1123.88</ele>
        <time>2017-06-11T13:29:11Z</time>
      </trkpt>
      <trkpt lat="44.00693" lon="6.97791">
        <ele>1119.47</ele>
        <time>2017-06-11T13:29:29Z</time>
      </trkpt>
      <trkpt lat="44.00688" lon="6.97815">
        <ele>1117.77</ele>
        <time>2017-06-11T13:29:47Z</time>
      </trkpt>
      <trkpt lat="44.00684" lon="6.97842">
        <ele>1112.6</ele>
        <time>2017-06-11T13:30:06Z</time>
      </trkpt>
      <trkpt lat="44.00675" lon="6.97863">
        <ele>1113.22</ele>
        <time>2017-06-11T13:30:19Z</time>
      </trkpt>
      <trkpt lat="44.00666" lon="6.97887">
        <ele>1112.64</ele>
        <time>2017-06-11T13:30:36Z</time>
      </trkpt>
      <trkpt lat="44.00658" lon="6.9791">
        <ele>1110.55</ele>
        <time>2017-06-11T13:30:55Z</time>
      </trkpt>
      <trkpt lat="44.0065" lon="6.97936">
        <ele>1109.25</ele>
        <time>2017-06-11T13:31:14Z</time>
      </trkpt>
      <trkpt lat="44.00644" lon="6.9796">
        <ele>1104.64</ele>
        <time>2017-06-11T13:31:37Z</time>
      </trkpt>
      <trkpt lat="44.00633" lon="6.97983">
        <ele>1103.46</ele>
        <time>2017-06-11T13:31:55Z</time>
      </trkpt>
      <trkpt lat="44.00627" lon="6.98007">
        <ele>1098.77</ele>
        <time>2017-06-11T13:32:13Z</time>
      </trkpt>
      <trkpt lat="44.00626" lon="6.98032">
        <ele>1096.23</ele>
        <time>2017-06-11T13:32:34Z</time>
      </trkpt>
      <trkpt lat="44.00625" lon="6.98059">
        <ele>1090.46</ele>
        <time>2017-06-11T13:32:52Z</time>
      </trkpt>
      <trkpt lat="44.00615" lon="6.98081">
        <ele>1088.58</ele>
        <time>2017-06-11T13:33:17Z</time>
      </trkpt>
      <trkpt lat="44.00611" lon="6.98106">
        <ele>1087.37</ele>
        <time>2017-06-11T13:33:38Z</time>
      </trkpt>
      <trkpt lat="44.00603" lon="6.98129">
        <ele>1080.56</ele>
        <time>2017-06-11T13:34:04Z</time>
      </trkpt>
      <trkpt lat="44.00603" lon="6.98155">
        <ele>1078.34</ele>
        <time>2017-06-11T13:34:26Z</time>
      </trkpt>
      <trkpt lat="44.00606" lon="6.9818">
        <ele>1069.8</ele>
        <time>2017-06-11T13:34:48Z</time>
      </trkpt>
      <trkpt lat="44.00611" lon="6.98204">
        <ele>1066.58</ele>
        <time>2017-06-11T13:35:09Z</time>
      </trkpt>
      <trkpt lat="44.00625" lon="6.98221">
        <ele>1063.25</ele>
        <time>2017-06-11T13:35:28Z</time>
      </trkpt>
      <trkpt lat="44.00638" lon="6.98238">
        <ele>1059.49</ele>
        <time>2017-06-11T13:35:47Z</time>
      </trkpt>
      <trkpt lat="44.0065" lon="6.98259">
        <ele>1054.34</ele>
        <time>2017-06-11T13:36:14Z</time>
      </trkpt>
      <trkpt lat="44.00656" lon="6.98283">
        <ele>1048.67</ele>
        <time>2017-06-11T13:36:40Z</time>
      </trkpt>
      <trkpt lat="44.00665" lon="6.98305">
        <ele>1048.55</ele>
        <time>2017-06-11T13:37:02Z</time>
      </trkpt>
      <trkpt lat="44.00669" lon="6.9833">
        <ele>1042.27</ele>
        <time>2017-06-11T13:37:33Z</time>
      </trkpt>
      <trkpt lat="44.00677" lon="6.98352">
        <ele>1030.55</ele>
        <time>2017-06-11T13:38:14Z</time>
      </trkpt>
      <trkpt lat="44.00681" lon="6.98377">
        <ele>1022.55</ele>
        <time>2017-06-11T13:38:51Z</time>
      </trkpt>
      <trkpt lat="44.00676" lon="6.98401">
        <ele>1010.96</ele>
        <time>2017-06-11T13:39:22Z</time>
      </trkpt>
      <trkpt lat="44.00673" lon="6.98426">
        <ele>1008.46</ele>
        <time>2017-06-11T13:39:53Z</time>
      </trkpt>
      <trkpt lat="44.00656" lon="6.98438">
        <ele>1004.25</ele>
        <time>2017-06-11T13:40:15Z</time>
      </trkpt>
      <trkpt lat="44.0064" lon="6.98449">
        <ele>1001.64</ele>
        <time>2017-06-11T13:40:39Z</time>
      </trkpt>
      <trkpt lat="44.00625" lon="6.98463">
        <ele>996.54</ele>
        <time>2017-06-11T13:40:58Z</time>
      </trkpt>
      <trkpt lat="44.00606" lon="6.98466">
        <ele>992.26</ele>
        <time>2017-06-11T13:41:21Z</time>
      </trkpt>
      <trkpt lat="44.00588" lon="6.98463">
        <ele>984.46</ele>
        <time>2017-06-11T13:42:53Z</time>
      </trkpt>
      <trkpt lat="44.0057" lon="6.98462">
        <ele>980.55</ele>
        <time>2017-06-11T13:43:16Z</time>
      </trkpt>
      <trkpt lat="44.00553" lon="6.98475">
        <ele>975.82</ele>
        <time>2017-06-11T13:43:50Z</time>
      </trkpt>
      <trkpt lat="44.00535" lon="6.98472">
        <ele>968.86</ele>
        <time>2017-06-11T13:44:11Z</time>
      </trkpt>
      <trkpt lat="44.00519" lon="6.98461">
        <ele>965.54</ele>
        <time>2017-06-11T13:44:33Z</time>
      </trkpt>
      <trkpt lat="44.00505" lon="6.98444">
        <ele>959.77</ele>
        <time>2017-06-11T13:44:54Z</time>
      </trkpt>
      <trkpt lat="44.0049" lon="6.98429">
        <ele>959.91</ele>
        <time>2017-06-11T13:45:13Z</time>
      </trkpt>
      <trkpt lat="44.00479" lon="6.98409">
        <ele>955.87</ele>
        <time>2017-06-11T13:45:34Z</time>
      </trkpt>
      <trkpt lat="44.00466" lon="6.9839">
        <ele>953.58</ele>
        <time>2017-06-11T13:45:51Z</time>
      </trkpt>
      <trkpt lat="44.00457" lon="6.98368">
        <ele>951.82</ele>
        <time>2017-06-11T13:46:10Z</time>
      </trkpt>
      <trkpt lat="44.00445" lon="6.98349">
        <ele>950.65</ele>
        <time>2017-06-11T13:46:30Z</time>
      </trkpt>
      <trkpt lat="44.00442" lon="6.98374">
        <ele>941.91</ele>
        <time>2017-06-11T13:47:13Z</time>
      </trkpt>
      <trkpt lat="44.00443" lon="6.984">
        <ele>940.43</ele>
        <time>2017-06-11T13:47:35Z</time>
      </trkpt>
      <trkpt lat="44.00427" lon="6.98383">
        <ele>937.65</ele>
        <time>2017-06-11T13:47:57Z</time>
      </trkpt>
      <trkpt lat="44.0042" lon="6.98361">
        <ele>931.69</ele>
        <time>2017-06-11T13:48:15Z</time>
      </trkpt>
      <trkpt lat="44.00409" lon="6.98338">
        <ele>930.64</ele>
        <time>2017-06-11T13:48:36Z</time>
      </trkpt>
      <trkpt lat="44.00398" lon="6.98318">
        <ele>927.9</ele>
        <time>2017-06-11T13:48:54Z</time>
      </trkpt>
      <trkpt lat="44.00388" lon="6.98297">
        <ele>927.59</ele>
        <time>2017-06-11T13:49:18Z</time>
      </trkpt>
      <trkpt lat="44.00376" lon="6.98278">
        <ele>938.27</ele>
        <time>2017-06-11T13:49:42Z</time>
      </trkpt>
      <trkpt lat="44.00364" lon="6.98258">
        <ele>926.91</ele>
        <time>2017-06-11T13:50:11Z</time>
      </trkpt>
      <trkpt lat="44.00357" lon="6.98234">
        <ele>922.38</ele>
        <time>2017-06-11T13:50:29Z</time>
      </trkpt>
      <trkpt lat="44.00348" lon="6.98212">
        <ele>918.57</ele>
        <time>2017-06-11T13:50:46Z</time>
      </trkpt>
      <trkpt lat="44.00334" lon="6.98196">
        <ele>904.55</ele>
        <time>2017-06-11T13:51:41Z</time>
      </trkpt>
      <trkpt lat="44.00316" lon="6.98197">
        <ele>898.85</ele>
        <time>2017-06-11T13:52:15Z</time>
      </trkpt>
      <trkpt lat="44.00297" lon="6.98196">
        <ele>887.58</ele>
        <time>2017-06-11T13:55:58Z</time>
      </trkpt>
      <trkpt lat="44.0028" lon="6.98188">
        <ele>884.64</ele>
        <time>2017-06-11T13:56:31Z</time>
      </trkpt>
      <trkpt lat="44.00266" lon="6.98172">
        <ele>881.16</ele>
        <time>2017-06-11T13:57:09Z</time>
      </trkpt>
      <trkpt lat="44.00251" lon="6.98188">
        <ele>868.27</ele>
        <time>2017-06-11T13:58:25Z</time>
      </trkpt>
      <trkpt lat="44.00245" lon="6.98213">
        <ele>862.15</ele>
        <time>2017-06-11T13:58:54Z</time>
      </trkpt>
      <trkpt lat="44.00251" lon="6.98237">
        <ele>857.55</ele>
        <time>2017-06-11T13:59:16Z</time>
      </trkpt>
      <trkpt lat="44.00244" lon="6.98262">
        <ele>856.67</ele>
        <time>2017-06-11T13:59:43Z</time>
      </trkpt>
      <trkpt lat="44.00239" lon="6.98287">
        <ele>853.55</ele>
        <time>2017-06-11T14:00:06Z</time>
      </trkpt>
      <trkpt lat="44.0023" lon="6.9831">
        <ele>845.04</ele>
        <time>2017-06-11T14:00:51Z</time>
      </trkpt>
      <trkpt lat="44.00212" lon="6.98304">
        <ele>836.4</ele>
        <time>2017-06-11T14:01:26Z</time>
      </trkpt>
      <trkpt lat="44.00207" lon="6.98329">
        <ele>836.93</ele>
        <time>2017-06-11T14:02:14Z</time>
      </trkpt>
      <trkpt lat="44.00199" lon="6.98352">
        <ele>824.53</ele>
        <time>2017-06-11T14:02:57Z</time>
      </trkpt>
      <trkpt lat="44.00185" lon="6.98368">
        <ele>816.51</ele>
        <time>2017-06-11T14:04:10Z</time>
      </trkpt>
      <trkpt lat="44.00178" lon="6.98392">
        <ele>788</ele>
        <time>2017-06-11T14:05:18Z</time>
      </trkpt>
      <trkpt lat="44.00176" lon="6.98419">
        <ele>786.56</ele>
        <time>2017-06-11T14:05:45Z</time>
      </trkpt>
      <trkpt lat="44.00166" lon="6.98441">
        <ele>788.43</ele>
        <time>2017-06-11T14:06:06Z</time>
      </trkpt>
      <trkpt lat="44.00171" lon="6.98467">
        <ele>786.84</ele>
        <time>2017-06-11T14:06:35Z</time>
      </trkpt>
      <trkpt lat="44.00182" lon="6.98488">
        <ele>781.34</ele>
        <time>2017-06-11T14:07:09Z</time>
      </trkpt>
    </trkseg>
  </trk>
</gpx>